sensor_id;sensor_type;location;lat;lon;timestamp;pressure;altitude;pressure_sealevel;temperature;humidity
19236;BME280;9752;54.270;12.470;2022-09-24T00:04:41;101456.16;;;8.82;100.00
19236;BME280;9752;54.270;12.470;2022-09-24T00:09:43;101452.84;;;8.72;100.00
19236;BME280;9752;54.270;12.470;2022-09-24T00:14:46;101452.91;;;8.62;100.00
19236;BME280;9752;54.270;12.470;2022-09-24T00:19:47;101444.81;;;8.57;100.00
19236;BME280;9752;54.270;12.470;2022-09-24T00:24:49;101447.41;;;8.57;100.00
19236;BME280;9752;54.270;12.470;2022-09-24T00:30:10;101444.31;;;8.51;100.00
19236;BME280;9752;54.270;12.470;2022-09-24T00:35:12;101432.59;;;8.45;100.00
19236;BME280;9752;54.270;12.470;2022-09-24T00:40:14;101434.69;;;8.38;100.00
19236;BME280;9752;54.270;12.470;2022-09-24T00:45:17;101423.53;;;8.39;100.00
19236;BME280;9752;54.270;12.470;2022-09-24T00:50:22;101422.91;;;8.42;100.00
19236;BME280;9752;54.270;12.470;2022-09-24T00:55:25;101421.06;;;8.41;100.00
19236;BME280;9752;54.270;12.470;2022-09-24T01:00:29;101419.03;;;8.37;100.00
19236;BME280;9752;54.270;12.470;2022-09-24T01:05:31;101413.75;;;8.35;100.00
19236;BME280;9752;54.270;12.470;2022-09-24T01:10:42;101414.63;;;8.36;100.00
19236;BME280;9752;54.270;12.470;2022-09-24T01:15:55;101415.66;;;8.38;100.00
19236;BME280;9752;54.270;12.470;2022-09-24T01:21:17;101414.09;;;8.40;100.00
19236;BME280;9752;54.270;12.470;2022-09-24T01:26:35;101412.31;;;8.39;100.00
19236;BME280;9752;54.270;12.470;2022-09-24T01:31:44;101409.47;;;8.36;100.00
19236;BME280;9752;54.270;12.470;2022-09-24T01:36:47;101408.03;;;8.39;100.00
19236;BME280;9752;54.270;12.470;2022-09-24T01:41:51;101402.47;;;8.45;100.00
19236;BME280;9752;54.270;12.470;2022-09-24T01:46:55;101402.47;;;8.45;100.00
19236;BME280;9752;54.270;12.470;2022-09-24T01:52:00;101401.94;;;8.49;100.00
19236;BME280;9752;54.270;12.470;2022-09-24T01:57:07;101395.97;;;8.50;100.00
19236;BME280;9752;54.270;12.470;2022-09-24T02:02:16;101396.09;;;8.52;100.00
19236;BME280;9752;54.270;12.470;2022-09-24T02:07:25;101394.28;;;8.51;100.00
19236;BME280;9752;54.270;12.470;2022-09-24T02:12:33;101389.47;;;8.55;100.00
19236;BME280;9752;54.270;12.470;2022-09-24T02:17:42;101391.84;;;8.52;100.00
19236;BME280;9752;54.270;12.470;2022-09-24T02:22:48;101385.78;;;8.52;100.00
19236;BME280;9752;54.270;12.470;2022-09-24T02:27:51;101377.34;;;8.54;100.00
19236;BME280;9752;54.270;12.470;2022-09-24T02:32:54;101379.66;;;8.51;100.00
19236;BME280;9752;54.270;12.470;2022-09-24T02:37:57;101374.94;;;8.46;100.00
19236;BME280;9752;54.270;12.470;2022-09-24T02:42:59;101375.59;;;8.43;100.00
19236;BME280;9752;54.270;12.470;2022-09-24T02:48:02;101370.94;;;8.39;100.00
19236;BME280;9752;54.270;12.470;2022-09-24T02:53:04;101369.31;;;8.29;100.00
19236;BME280;9752;54.270;12.470;2022-09-24T02:58:05;101366.91;;;8.20;100.00
19236;BME280;9752;54.270;12.470;2022-09-24T03:03:08;101366.97;;;8.10;100.00
19236;BME280;9752;54.270;12.470;2022-09-24T03:08:10;101362.22;;;8.05;100.00
19236;BME280;9752;54.270;12.470;2022-09-24T03:13:12;101369.38;;;7.97;100.00
19236;BME280;9752;54.270;12.470;2022-09-24T03:18:15;101366.28;;;7.91;100.00
19236;BME280;9752;54.270;12.470;2022-09-24T03:23:17;101372.22;;;7.90;100.00
19236;BME280;9752;54.270;12.470;2022-09-24T03:28:19;101367.34;;;7.82;100.00
19236;BME280;9752;54.270;12.470;2022-09-24T03:33:22;101380.53;;;7.75;100.00
19236;BME280;9752;54.270;12.470;2022-09-24T03:38:24;101373.19;;;7.70;100.00
19236;BME280;9752;54.270;12.470;2022-09-24T03:43:26;101366.25;;;7.69;100.00
19236;BME280;9752;54.270;12.470;2022-09-24T03:48:29;101365.84;;;7.64;100.00
19236;BME280;9752;54.270;12.470;2022-09-24T03:53:31;101363.41;;;7.66;100.00
19236;BME280;9752;54.270;12.470;2022-09-24T03:58:35;101367.41;;;7.72;100.00
19236;BME280;9752;54.270;12.470;2022-09-24T04:03:39;101363.78;;;7.70;100.00
19236;BME280;9752;54.270;12.470;2022-09-24T04:08:41;101358.38;;;7.67;100.00
19236;BME280;9752;54.270;12.470;2022-09-24T04:13:43;101360.81;;;7.66;100.00
19236;BME280;9752;54.270;12.470;2022-09-24T04:18:46;101359.44;;;7.59;100.00
19236;BME280;9752;54.270;12.470;2022-09-24T04:23:48;101360.75;;;7.54;100.00
19236;BME280;9752;54.270;12.470;2022-09-24T04:28:49;101360.22;;;7.58;100.00
19236;BME280;9752;54.270;12.470;2022-09-24T04:33:52;101360.22;;;7.58;100.00
19236;BME280;9752;54.270;12.470;2022-09-24T04:38:54;101361.91;;;7.57;100.00
19236;BME280;9752;54.270;12.470;2022-09-24T04:43:56;101361.09;;;7.58;100.00
19236;BME280;9752;54.270;12.470;2022-09-24T04:49:00;101359.19;;;7.56;100.00
19236;BME280;9752;54.270;12.470;2022-09-24T04:54:02;101355.84;;;7.47;100.00
19236;BME280;9752;54.270;12.470;2022-09-24T04:59:04;101353.94;;;7.44;100.00
19236;BME280;9752;54.270;12.470;2022-09-24T05:04:07;101351.09;;;7.41;100.00
19236;BME280;9752;54.270;12.470;2022-09-24T05:09:09;101355.50;;;7.32;100.00
19236;BME280;9752;54.270;12.470;2022-09-24T05:14:10;101363.41;;;7.23;100.00
19236;BME280;9752;54.270;12.470;2022-09-24T05:19:13;101369.06;;;7.19;100.00
19236;BME280;9752;54.270;12.470;2022-09-24T05:24:15;101374.72;;;7.15;100.00
19236;BME280;9752;54.270;12.470;2022-09-24T05:29:17;101368.69;;;7.14;100.00
19236;BME280;9752;54.270;12.470;2022-09-24T05:34:20;101375.28;;;7.21;100.00
19236;BME280;9752;54.270;12.470;2022-09-24T05:39:22;101376.00;;;7.30;100.00
19236;BME280;9752;54.270;12.470;2022-09-24T05:44:23;101376.22;;;7.43;100.00
19236;BME280;9752;54.270;12.470;2022-09-24T05:49:27;101375.81;;;7.59;100.00
19236;BME280;9752;54.270;12.470;2022-09-24T05:54:28;101376.66;;;7.80;100.00
19236;BME280;9752;54.270;12.470;2022-09-24T05:59:30;101378.50;;;8.04;100.00
19236;BME280;9752;54.270;12.470;2022-09-24T06:04:33;101390.41;;;8.24;100.00
19236;BME280;9752;54.270;12.470;2022-09-24T06:09:35;101388.78;;;8.46;100.00
19236;BME280;9752;54.270;12.470;2022-09-24T06:14:36;101383.22;;;8.64;100.00
19236;BME280;9752;54.270;12.470;2022-09-24T06:19:39;101388.16;;;8.94;100.00
19236;BME280;9752;54.270;12.470;2022-09-24T06:24:41;101386.47;;;9.07;100.00
19236;BME280;9752;54.270;12.470;2022-09-24T06:29:43;101391.47;;;9.15;100.00
19236;BME280;9752;54.270;12.470;2022-09-24T06:34:46;101380.34;;;9.28;100.00
19236;BME280;9752;54.270;12.470;2022-09-24T06:39:48;101375.53;;;9.45;100.00
19236;BME280;9752;54.270;12.470;2022-09-24T06:44:49;101374.16;;;9.62;100.00
19236;BME280;9752;54.270;12.470;2022-09-24T06:49:52;101376.63;;;9.84;100.00
19236;BME280;9752;54.270;12.470;2022-09-24T06:54:54;101375.09;;;10.11;100.00
19236;BME280;9752;54.270;12.470;2022-09-24T06:59:56;101375.09;;;10.34;100.00
19236;BME280;9752;54.270;12.470;2022-09-24T07:04:59;101378.22;;;10.42;100.00
19236;BME280;9752;54.270;12.470;2022-09-24T07:10:03;101382.31;;;10.64;100.00
19236;BME280;9752;54.270;12.470;2022-09-24T07:15:06;101370.41;;;10.92;100.00
19236;BME280;9752;54.270;12.470;2022-09-24T07:20:10;101365.13;;;11.29;100.00
19236;BME280;9752;54.270;12.470;2022-09-24T07:25:11;101364.75;;;11.50;100.00
19236;BME280;9752;54.270;12.470;2022-09-24T07:30:13;101367.44;;;11.78;100.00
19236;BME280;9752;54.270;12.470;2022-09-24T07:35:16;101364.03;;;11.93;100.00
19236;BME280;9752;54.270;12.470;2022-09-24T07:40:20;101366.31;;;12.15;100.00
19236;BME280;9752;54.270;12.470;2022-09-24T07:45:23;101366.16;;;12.55;100.00
19236;BME280;9752;54.270;12.470;2022-09-24T07:50:30;101350.06;;;13.05;100.00
19236;BME280;9752;54.270;12.470;2022-09-24T07:55:32;101359.63;;;13.19;100.00
19236;BME280;9752;54.270;12.470;2022-09-24T08:00:40;101356.84;;;13.46;100.00
19236;BME280;9752;54.270;12.470;2022-09-24T08:05:44;101351.31;;;14.02;100.00
19236;BME280;9752;54.270;12.470;2022-09-24T08:10:45;101363.16;;;14.12;100.00
19236;BME280;9752;54.270;12.470;2022-09-24T08:15:55;101359.00;;;14.32;100.00
19236;BME280;9752;54.270;12.470;2022-09-24T08:21:02;101350.75;;;14.24;100.00
19236;BME280;9752;54.270;12.470;2022-09-24T08:26:05;101360.75;;;14.48;100.00
19236;BME280;9752;54.270;12.470;2022-09-24T08:31:09;101362.47;;;14.80;100.00
19236;BME280;9752;54.270;12.470;2022-09-24T08:36:12;101361.16;;;14.56;100.00
19236;BME280;9752;54.270;12.470;2022-09-24T08:41:23;101353.19;;;14.69;100.00
19236;BME280;9752;54.270;12.470;2022-09-24T08:46:31;101356.59;;;14.84;100.00
19236;BME280;9752;54.270;12.470;2022-09-24T08:52:00;101356.56;;;15.01;100.00
19236;BME280;9752;54.270;12.470;2022-09-24T08:57:10;101364.91;;;14.94;100.00
19236;BME280;9752;54.270;12.470;2022-09-24T09:02:22;101357.94;;;15.11;100.00
19236;BME280;9752;54.270;12.470;2022-09-24T09:07:34;101356.75;;;15.40;100.00
19236;BME280;9752;54.270;12.470;2022-09-24T09:12:43;101355.69;;;15.89;100.00
19236;BME280;9752;54.270;12.470;2022-09-24T09:17:49;101360.72;;;15.84;100.00
19236;BME280;9752;54.270;12.470;2022-09-24T09:22:54;101366.97;;;15.52;100.00
19236;BME280;9752;54.270;12.470;2022-09-24T09:28:02;101366.19;;;15.54;100.00
19236;BME280;9752;54.270;12.470;2022-09-24T09:33:16;101362.41;;;15.84;100.00
19236;BME280;9752;54.270;12.470;2022-09-24T09:38:28;101358.72;;;16.35;100.00
19236;BME280;9752;54.270;12.470;2022-09-24T09:43:31;101373.66;;;16.57;100.00
19236;BME280;9752;54.270;12.470;2022-09-24T09:48:42;101373.63;;;16.75;100.00
19236;BME280;9752;54.270;12.470;2022-09-24T09:53:55;101378.28;;;16.44;100.00
19236;BME280;9752;54.270;12.470;2022-09-24T09:59:03;101369.44;;;16.81;100.00
19236;BME280;9752;54.270;12.470;2022-09-24T10:04:23;101367.69;;;16.60;100.00
19236;BME280;9752;54.270;12.470;2022-09-24T10:09:29;101363.00;;;16.72;100.00
19236;BME280;9752;54.270;12.470;2022-09-24T10:14:31;101360.78;;;17.01;100.00
19236;BME280;9752;54.270;12.470;2022-09-24T10:19:34;101360.44;;;17.34;100.00
19236;BME280;9752;54.270;12.470;2022-09-24T10:24:41;101355.47;;;18.06;100.00
19236;BME280;9752;54.270;12.470;2022-09-24T10:29:44;101365.16;;;17.22;100.00
19236;BME280;9752;54.270;12.470;2022-09-24T10:35:19;101354.97;;;17.29;100.00
19236;BME280;9752;54.270;12.470;2022-09-24T10:40:24;101350.22;;;17.63;100.00
19236;BME280;9752;54.270;12.470;2022-09-24T10:45:42;101356.69;;;18.39;100.00
19236;BME280;9752;54.270;12.470;2022-09-24T10:50:51;101348.72;;;17.90;100.00
19236;BME280;9752;54.270;12.470;2022-09-24T10:56:01;101350.59;;;17.72;100.00
19236;BME280;9752;54.270;12.470;2022-09-24T11:01:11;101357.91;;;18.02;100.00
19236;BME280;9752;54.270;12.470;2022-09-24T11:06:20;101351.25;;;17.45;100.00
19236;BME280;9752;54.270;12.470;2022-09-24T11:11:34;101349.66;;;17.28;100.00
19236;BME280;9752;54.270;12.470;2022-09-24T11:16:57;101353.75;;;17.63;100.00
19236;BME280;9752;54.270;12.470;2022-09-24T11:22:09;101351.44;;;17.71;100.00
19236;BME280;9752;54.270;12.470;2022-09-24T11:27:27;101345.88;;;17.84;100.00
19236;BME280;9752;54.270;12.470;2022-09-24T11:32:37;101344.09;;;17.41;100.00
19236;BME280;9752;54.270;12.470;2022-09-24T11:37:53;101340.78;;;17.68;100.00
19236;BME280;9752;54.270;12.470;2022-09-24T11:43:09;101337.66;;;17.76;100.00
19236;BME280;9752;54.270;12.470;2022-09-24T11:48:36;101331.72;;;18.03;100.00
19236;BME280;9752;54.270;12.470;2022-09-24T11:53:43;101341.03;;;17.95;100.00
19236;BME280;9752;54.270;12.470;2022-09-24T11:58:50;101335.22;;;18.04;100.00
19236;BME280;9752;54.270;12.470;2022-09-24T12:04:02;101339.94;;;17.04;100.00
19236;BME280;9752;54.270;12.470;2022-09-24T12:09:11;101347.44;;;17.16;100.00
19236;BME280;9752;54.270;12.470;2022-09-24T12:14:20;101343.34;;;17.23;100.00
19236;BME280;9752;54.270;12.470;2022-09-24T12:19:26;101342.31;;;16.98;100.00
19236;BME280;9752;54.270;12.470;2022-09-24T12:24:34;101346.16;;;16.67;100.00
19236;BME280;9752;54.270;12.470;2022-09-24T12:29:44;101347.63;;;16.61;100.00
19236;BME280;9752;54.270;12.470;2022-09-24T12:35:11;101347.13;;;16.69;100.00
19236;BME280;9752;54.270;12.470;2022-09-24T12:40:38;101335.50;;;16.82;100.00
19236;BME280;9752;54.270;12.470;2022-09-24T12:45:44;101344.25;;;16.63;100.00
19236;BME280;9752;54.270;12.470;2022-09-24T12:50:55;101345.28;;;17.07;100.00
19236;BME280;9752;54.270;12.470;2022-09-24T12:55:59;101340.28;;;17.33;100.00
19236;BME280;9752;54.270;12.470;2022-09-24T13:01:10;101334.84;;;17.49;100.00
19236;BME280;9752;54.270;12.470;2022-09-24T13:06:22;101335.44;;;17.86;100.00
19236;BME280;9752;54.270;12.470;2022-09-24T13:11:27;101341.44;;;17.40;100.00
19236;BME280;9752;54.270;12.470;2022-09-24T13:16:37;101339.06;;;17.25;100.00
19236;BME280;9752;54.270;12.470;2022-09-24T13:21:39;101329.84;;;17.13;100.00
19236;BME280;9752;54.270;12.470;2022-09-24T13:26:41;101334.06;;;17.10;100.00
19236;BME280;9752;54.270;12.470;2022-09-24T13:31:47;101327.31;;;17.81;100.00
19236;BME280;9752;54.270;12.470;2022-09-24T13:36:56;101324.72;;;16.95;100.00
19236;BME280;9752;54.270;12.470;2022-09-24T13:42:03;101327.47;;;18.29;100.00
19236;BME280;9752;54.270;12.470;2022-09-24T13:47:13;101321.81;;;18.43;100.00
19236;BME280;9752;54.270;12.470;2022-09-24T13:52:25;101322.31;;;18.32;100.00
19236;BME280;9752;54.270;12.470;2022-09-24T13:57:29;101318.03;;;18.34;100.00
19236;BME280;9752;54.270;12.470;2022-09-24T14:02:35;101322.59;;;17.93;100.00
19236;BME280;9752;54.270;12.470;2022-09-24T14:07:39;101323.00;;;17.82;100.00
19236;BME280;9752;54.270;12.470;2022-09-24T14:12:40;101325.56;;;17.80;100.00
19236;BME280;9752;54.270;12.470;2022-09-24T14:17:54;101325.47;;;17.56;100.00
19236;BME280;9752;54.270;12.470;2022-09-24T14:22:56;101333.28;;;17.33;100.00
19236;BME280;9752;54.270;12.470;2022-09-24T14:28:00;101331.53;;;17.76;100.00
19236;BME280;9752;54.270;12.470;2022-09-24T14:33:06;101321.53;;;17.88;100.00
19236;BME280;9752;54.270;12.470;2022-09-24T14:38:17;101325.19;;;17.71;100.00
19236;BME280;9752;54.270;12.470;2022-09-24T14:43:22;101323.38;;;17.70;100.00
19236;BME280;9752;54.270;12.470;2022-09-24T14:48:30;101324.16;;;17.67;100.00
19236;BME280;9752;54.270;12.470;2022-09-24T14:53:34;101309.72;;;17.56;100.00
19236;BME280;9752;54.270;12.470;2022-09-24T14:58:37;101318.84;;;17.22;100.00
19236;BME280;9752;54.270;12.470;2022-09-24T15:03:43;101325.56;;;16.94;100.00
19236;BME280;9752;54.270;12.470;2022-09-24T15:08:55;101318.59;;;16.75;100.00
19236;BME280;9752;54.270;12.470;2022-09-24T15:13:59;101317.53;;;16.51;100.00
19236;BME280;9752;54.270;12.470;2022-09-24T15:19:13;101324.28;;;16.26;100.00
19236;BME280;9752;54.270;12.470;2022-09-24T15:24:17;101333.00;;;16.07;100.00
19236;BME280;9752;54.270;12.470;2022-09-24T15:29:20;101337.22;;;15.86;100.00
19236;BME280;9752;54.270;12.470;2022-09-24T15:34:25;101330.31;;;15.70;100.00
19236;BME280;9752;54.270;12.470;2022-09-24T15:39:28;101327.66;;;15.50;100.00
19236;BME280;9752;54.270;12.470;2022-09-24T15:44:31;101329.66;;;15.38;100.00
19236;BME280;9752;54.270;12.470;2022-09-24T15:49:34;101340.19;;;15.21;100.00
19236;BME280;9752;54.270;12.470;2022-09-24T15:54:36;101337.78;;;15.08;100.00
19236;BME280;9752;54.270;12.470;2022-09-24T15:59:37;101341.75;;;14.83;100.00
19236;BME280;9752;54.270;12.470;2022-09-24T16:04:41;101348.66;;;14.83;100.00
19236;BME280;9752;54.270;12.470;2022-09-24T16:09:42;101343.63;;;14.70;100.00
19236;BME280;9752;54.270;12.470;2022-09-24T16:14:44;101347.28;;;14.57;100.00
19236;BME280;9752;54.270;12.470;2022-09-24T16:19:48;101348.25;;;14.42;100.00
19236;BME280;9752;54.270;12.470;2022-09-24T16:24:49;101354.13;;;14.22;100.00
19236;BME280;9752;54.270;12.470;2022-09-24T16:29:51;101356.88;;;14.09;100.00
19236;BME280;9752;54.270;12.470;2022-09-24T16:34:54;101357.00;;;13.95;100.00
19236;BME280;9752;54.270;12.470;2022-09-24T16:39:56;101358.94;;;13.83;100.00
19236;BME280;9752;54.270;12.470;2022-09-24T16:44:58;101363.22;;;13.66;100.00
19236;BME280;9752;54.270;12.470;2022-09-24T16:50:01;101364.66;;;13.46;100.00
19236;BME280;9752;54.270;12.470;2022-09-24T16:55:03;101362.88;;;13.30;100.00
19236;BME280;9752;54.270;12.470;2022-09-24T17:00:06;101359.41;;;13.16;100.00
19236;BME280;9752;54.270;12.470;2022-09-24T17:05:10;101356.84;;;13.01;100.00
19236;BME280;9752;54.270;12.470;2022-09-24T17:10:12;101364.44;;;12.83;100.00
19236;BME280;9752;54.270;12.470;2022-09-24T17:15:16;101363.31;;;12.65;100.00
19236;BME280;9752;54.270;12.470;2022-09-24T17:20:21;101368.41;;;12.48;100.00
19236;BME280;9752;54.270;12.470;2022-09-24T17:25:23;101365.66;;;12.32;100.00
19236;BME280;9752;54.270;12.470;2022-09-24T17:30:24;101375.28;;;12.20;100.00
19236;BME280;9752;54.270;12.470;2022-09-24T17:35:28;101373.53;;;12.05;100.00
19236;BME280;9752;54.270;12.470;2022-09-24T17:40:30;101372.94;;;11.96;100.00
19236;BME280;9752;54.270;12.470;2022-09-24T17:45:31;101370.59;;;11.87;100.00
19236;BME280;9752;54.270;12.470;2022-09-24T17:50:34;101378.63;;;11.77;100.00
19236;BME280;9752;54.270;12.470;2022-09-24T17:55:36;101373.72;;;11.68;100.00
19236;BME280;9752;54.270;12.470;2022-09-24T18:00:38;101379.72;;;11.54;100.00
19236;BME280;9752;54.270;12.470;2022-09-24T18:05:42;101384.91;;;11.41;100.00
19236;BME280;9752;54.270;12.470;2022-09-24T18:10:44;101372.41;;;11.35;100.00
19236;BME280;9752;54.270;12.470;2022-09-24T18:15:45;101383.91;;;11.39;100.00
19236;BME280;9752;54.270;12.470;2022-09-24T18:20:48;101387.66;;;11.30;100.00
19236;BME280;9752;54.270;12.470;2022-09-24T18:25:52;101395.94;;;11.25;100.00
19236;BME280;9752;54.270;12.470;2022-09-24T18:31:00;101395.88;;;11.23;100.00
19236;BME280;9752;54.270;12.470;2022-09-24T18:36:08;101394.56;;;11.17;100.00
19236;BME280;9752;54.270;12.470;2022-09-24T18:41:12;101391.66;;;11.12;100.00
19236;BME280;9752;54.270;12.470;2022-09-24T18:46:15;101407.25;;;11.12;100.00
19236;BME280;9752;54.270;12.470;2022-09-24T18:51:21;101401.22;;;11.13;100.00
19236;BME280;9752;54.270;12.470;2022-09-24T18:56:23;101407.25;;;11.12;100.00
19236;BME280;9752;54.270;12.470;2022-09-24T19:01:25;101403.81;;;11.13;100.00
19236;BME280;9752;54.270;12.470;2022-09-24T19:06:29;101412.03;;;11.19;100.00
19236;BME280;9752;54.270;12.470;2022-09-24T19:11:31;101415.16;;;11.27;100.00
19236;BME280;9752;54.270;12.470;2022-09-24T19:16:33;101421.66;;;11.33;100.00
19236;BME280;9752;54.270;12.470;2022-09-24T19:21:37;101420.75;;;11.33;100.00
19236;BME280;9752;54.270;12.470;2022-09-24T19:26:39;101418.94;;;11.32;100.00
19236;BME280;9752;54.270;12.470;2022-09-24T19:31:42;101429.44;;;11.33;100.00
19236;BME280;9752;54.270;12.470;2022-09-24T19:36:46;101419.06;;;11.33;100.00
19236;BME280;9752;54.270;12.470;2022-09-24T19:41:48;101422.53;;;11.34;100.00
19236;BME280;9752;54.270;12.470;2022-09-24T19:46:52;101421.66;;;11.33;100.00
19236;BME280;9752;54.270;12.470;2022-09-24T19:51:55;101418.84;;;11.30;100.00
19236;BME280;9752;54.270;12.470;2022-09-24T19:56:57;101420.25;;;11.25;100.00
19236;BME280;9752;54.270;12.470;2022-09-24T20:01:58;101411.53;;;11.25;100.00
19236;BME280;9752;54.270;12.470;2022-09-24T20:07:01;101409.88;;;11.25;100.00
19236;BME280;9752;54.270;12.470;2022-09-24T20:12:03;101416.44;;;11.20;100.00
19236;BME280;9752;54.270;12.470;2022-09-24T20:17:05;101413.53;;;11.16;100.00
19236;BME280;9752;54.270;12.470;2022-09-24T20:22:08;101414.09;;;11.11;100.00
19236;BME280;9752;54.270;12.470;2022-09-24T20:27:10;101415.28;;;11.03;100.00
19236;BME280;9752;54.270;12.470;2022-09-24T20:32:30;101416.78;;;11.00;100.00
19236;BME280;9752;54.270;12.470;2022-09-24T20:37:33;101413.16;;;10.98;100.00
19236;BME280;9752;54.270;12.470;2022-09-24T20:42:35;101410.34;;;10.94;100.00
19236;BME280;9752;54.270;12.470;2022-09-24T20:47:37;101415.53;;;10.94;100.00
19236;BME280;9752;54.270;12.470;2022-09-24T20:52:40;101423.91;;;10.90;100.00
19236;BME280;9752;54.270;12.470;2022-09-24T20:57:43;101426.31;;;10.87;100.00
19236;BME280;9752;54.270;12.470;2022-09-24T21:02:44;101424.41;;;10.85;100.00
19236;BME280;9752;54.270;12.470;2022-09-24T21:07:47;101432.88;;;10.82;100.00
19236;BME280;9752;54.270;12.470;2022-09-24T21:12:49;101435.38;;;10.81;100.00
19236;BME280;9752;54.270;12.470;2022-09-24T21:17:51;101433.34;;;10.77;100.00
19236;BME280;9752;54.270;12.470;2022-09-24T21:22:54;101426.94;;;10.71;100.00
19236;BME280;9752;54.270;12.470;2022-09-24T21:27:56;101423.16;;;10.66;100.00
19236;BME280;9752;54.270;12.470;2022-09-24T21:32:58;101420.22;;;10.62;100.00
19236;BME280;9752;54.270;12.470;2022-09-24T21:38:01;101418.31;;;10.59;100.00
19236;BME280;9752;54.270;12.470;2022-09-24T21:43:03;101430.47;;;10.60;100.00
19236;BME280;9752;54.270;12.470;2022-09-24T21:48:06;101435.59;;;10.59;100.00
19236;BME280;9752;54.270;12.470;2022-09-24T21:53:09;101436.59;;;10.61;100.00
19236;BME280;9752;54.270;12.470;2022-09-24T21:58:11;101443.69;;;10.63;100.00
19236;BME280;9752;54.270;12.470;2022-09-24T22:03:13;101443.91;;;10.66;100.00
19236;BME280;9752;54.270;12.470;2022-09-24T22:08:16;101445.56;;;10.66;100.00
19236;BME280;9752;54.270;12.470;2022-09-24T22:13:21;101443.56;;;10.62;100.00
19236;BME280;9752;54.270;12.470;2022-09-24T22:18:23;101447.63;;;10.58;100.00
19236;BME280;9752;54.270;12.470;2022-09-24T22:23:26;101444.13;;;10.58;100.00
19236;BME280;9752;54.270;12.470;2022-09-24T22:28:28;101449.09;;;10.54;100.00
19236;BME280;9752;54.270;12.470;2022-09-24T22:33:30;101445.31;;;10.49;100.00
19236;BME280;9752;54.270;12.470;2022-09-24T22:38:51;101441.47;;;10.44;100.00
19236;BME280;9752;54.270;12.470;2022-09-24T22:43:54;101448.00;;;10.39;100.00
19236;BME280;9752;54.270;12.470;2022-09-24T22:48:56;101437.66;;;10.39;100.00
19236;BME280;9752;54.270;12.470;2022-09-24T22:53:59;101440.22;;;10.39;100.00
19236;BME280;9752;54.270;12.470;2022-09-24T22:59:01;101439.34;;;10.39;100.00
19236;BME280;9752;54.270;12.470;2022-09-24T23:04:03;101437.88;;;10.42;100.00
19236;BME280;9752;54.270;12.470;2022-09-24T23:09:06;101440.59;;;10.44;100.00
19236;BME280;9752;54.270;12.470;2022-09-24T23:14:11;101446.53;;;10.43;100.00
19236;BME280;9752;54.270;12.470;2022-09-24T23:19:15;101442.06;;;10.40;100.00
19236;BME280;9752;54.270;12.470;2022-09-24T23:24:19;101436.06;;;10.41;100.00
19236;BME280;9752;54.270;12.470;2022-09-24T23:29:21;101442.06;;;10.40;100.00
19236;BME280;9752;54.270;12.470;2022-09-24T23:34:24;101443.94;;;10.43;100.00
19236;BME280;9752;54.270;12.470;2022-09-24T23:39:27;101439.66;;;10.43;100.00
19236;BME280;9752;54.270;12.470;2022-09-24T23:44:28;101439.56;;;10.42;100.00
19236;BME280;9752;54.270;12.470;2022-09-24T23:49:30;101433.69;;;10.44;100.00
19236;BME280;9752;54.270;12.470;2022-09-24T23:54:34;101433.00;;;10.47;100.00
19236;BME280;9752;54.270;12.470;2022-09-24T23:59:36;101445.31;;;10.49;100.00
